Home > Products > Valid Products > TAF

000
FTUS43 KMKX 290031 AAA
TAFMSN
TAF AMD
KMSN 290031Z 2901/2924 23010KT P6SM VCTS SCT035 BKN080CB
     FM290200 19007KT P6SM BKN050
     FM291200 21006KT P6SM VCSH BKN025
     FM291400 22007KT P6SM VCSH OVC015
     FM291700 26010G19KT P6SM BKN035
     FM292300 27010G18KT P6SM SCT200=



000
FTUS43 KMKX 281150
TAFMSN
TAF
KMSN 281150Z 2812/2912 17012KT P6SM VCSH OVC013
     FM281400 19010G21KT P6SM OVC020
     FM281600 19011G21KT P6SM BKN035
     FM290200 19007KT P6SM BKN050=



000
FTUS43 KMKX 281150
TAFMKE
TAF
KMKE 281150Z 2812/2918 17011KT P6SM SCT025 BKN120
      TEMPO 2812/2815 OVC025
     FM281600 20012G21KT P6SM BKN040
     FM290200 19008KT P6SM BKN050
     FM291300 21009KT P6SM BKN050=



000
FTUS43 KMKX 280710 AAB
TAFMSN
TAF AMD
KMSN 280710Z 2807/2906 17011KT P6SM VCSH BKN018 OVC045
      TEMPO 2807/2808 17017G25KT 5SM SHRA BR
     FM281000 17005KT 5SM BR OVC015
     FM281200 17007KT 5SM BR OVC008
     FM281500 19009KT P6SM OVC015
     FM281800 19013G20KT P6SM BKN035
     FM282300 18010G20KT P6SM SHRA VCTS BKN050CB
     FM290300 18008KT P6SM SHRA VCSH BKN090=



000
FTUS43 KMKX 280625 AAA
TAFMKE
TAF AMD
KMKE 280625Z 2806/2912 19011G17KT P6SM FEW030 BKN120
     FM281000 18005KT 5SM BR VCSH SCT025 OVC035
     FM281300 19007KT 6SM BR VCSH BKN025
     FM281500 19008KT P6SM VCSH BKN050
     FM281900 19009KT P6SM VCTS BKN035CB=



000
FTUS43 KMKX 272320
TAFMSN
TAF
KMSN 272320Z 2800/2824 17008KT P6SM VCSH SCT035 OVC060
      TEMPO 2804/2806 OVC025
     FM280600 17006KT 5SM SHRA VCTS OVC020CB
     FM280900 17006KT 4SM SHRA VCTS OVC015CB
      TEMPO 2810/2814 3SM TSRA OVC008CB
     FM281800 19012G22KT P6SM VCSH BKN050=



000
FTUS43 KMKX 272320
TAFMKE
TAF
KMKE 272320Z 2800/2906 15006KT P6SM SHRA VCTS SCT025 OVC060CB
     FM280100 16009KT P6SM VCSH SCT035 OVC060
     FM280600 17008KT 5SM SHRA VCTS SCT015 OVC040CB
     FM280900 18008KT 4SM SHRA VCTS OVC020CB
     FM281500 18012G20KT P6SM VCTS BKN025CB
     FM281700 18013G21KT P6SM VCSH BKN040
     FM290200 18008KT P6SM BKN250=



000
FTUS43 KMKX 271131
TAFMKE
TAF
KMKE 271131Z 2712/2818 VRB03KT P6SM SCT080 BKN200
      TEMPO 2713/2715 BKN080
     FM271500 16008KT P6SM BKN080 BKN150
     FM271800 17011G17KT P6SM VCTS SCT050 BKN080CB
     FM272200 15010KT P6SM -SHRA VCTS SCT050 BKN080CB
     FM280100 15007KT 5SM -SHRA VCTS OVC070CB
     FM280600 17009KT P6SM VCTS OVC030CB
     FM281300 18010KT P6SM OVC040=



000
FTUS43 KMKX 271131
TAFMSN
TAF
KMSN 271131Z 2712/2812 VRB06KT P6SM BKN060 BKN120
     FM271500 16008G15KT P6SM BKN070
     FM272100 17011G19KT P6SM -SHRA VCTS BKN060CB
     FM280200 16009KT 5SM -SHRA VCTS OVC030CB
     FM280700 17008KT 3SM -SHRA VCTS OVC010CB=



000
FTUS43 KMKX 262339
TAFMKE
TAF
KMKE 262339Z 2700/2806 25005KT P6SM BKN250
     FM270800 00000KT 5SM BR BKN250
     FM271300 16004KT P6SM SHRA VCTS SCT030 BKN050CB
     FM271800 16011KT P6SM SHRA VCTS BKN035CB=



000
FTUS43 KMKX 262339
TAFMSN
TAF
KMSN 262339Z 2700/2724 VRB03KT P6SM BKN250
     FM271000 16004KT 5SM SHRA BR VCTS BKN050CB
     FM271300 17005KT P6SM SHRA VCTS SCT030 OVC050CB
     FM271800 19008G15KT P6SM SHRA VCTS BKN035CB=



000
FTUS43 KMKX 261734
TAFMSN
TAF
KMSN 261734Z 2618/2718 22009KT P6SM SCT040
     FM270000 19006KT P6SM SCT250
     FM270200 17005KT P6SM BKN250
     FM271200 15004KT 3SM SHRA VCTS BKN090CB
     FM271500 18007KT 6SM SHRA VCTS BKN060CB=



000
FTUS43 KMKX 261734
TAFMKE
TAF
KMKE 261734Z 2618/2724 19008KT P6SM SCT060 BKN250
     FM262100 17008KT P6SM SCT250
     FM270000 17004KT P6SM SCT250
     FM270300 VRB03KT P6SM BKN250
     FM271600 18007KT P6SM BKN035
     FM271800 18008KT 5SM -SHRA VCTS BKN035CB
     FM271900 18008KT P6SM -SHRA VCTS BKN040CB=



000
FTUS43 KMKX 261129
TAFMSN
TAF
KMSN 261129Z 2612/2712 18005KT P6SM BKN080 OVC200
     FM261300 19004KT P6SM VCTS BKN060CB
      TEMPO 2613/2615 5SM -TSRA BKN040CB
     FM261600 20007G15KT P6SM BKN040 BKN100
     FM261800 22009KT P6SM SCT080 BKN200
     FM262000 22009KT P6SM BKN100
     FM262200 21008KT P6SM SCT200
     FM270200 17005KT P6SM BKN200=



000
FTUS43 KMKX 261129
TAFMKE
TAF
KMKE 261129Z 2612/2718 21008KT 5SM BR SCT003 BKN250
      TEMPO 2612/2613 3SM BR
     FM261400 21006KT P6SM SCT050 BKN200
     FM261700 20008KT P6SM SCT050 BKN150
     FM262100 17008KT P6SM SCT040
     FM270000 17004KT P6SM SCT200
     FM270300 VRB03KT P6SM BKN200
     FM271600 18007KT P6SM VCTS BKN140CB=



    US Dept of Commerce
    National Oceanic and Atmospheric Administration
    National Weather Service
    1325 East West Highway
    Silver Spring, MD 20910
    Page Author: NWS Internet Services Team
Disclaimer
Information Quality
Credits
Glossary
Privacy Policy
Freedom of Information Act (FOIA)
About Us
Career Opportunities